Luzerne, Pennsylvania
Current Conditions -  °F | °C
As of 9:54 PM on Tuesday 21 Oct 2014 (Local Time) from KAVP Reporting Station
Haze Haze  
Wind Chill: 52°   Ceiling: 9000
Heat Index: 52°   Visibility: 6mi
Dew Point: 49°   Wind: 5mph
Humidity: 89%   Direction: 80°E
Pressure: 29.92"   Gusts: NA
Location:  41.29°N, 75.9°W
Report Text: KAVP 220154Z 08004KT 6SM BR FEW065 BKN090 11/09 A2992 RMK AO2 SLP132 T01110094
Loading
Personal Weather Stations






























Interactive Weather Map
Tropical Storm Tracking
New forecast layout! Learn more

10-Day Weather Forecast

Advertisements
Track Severe Weather on mobile